Time;durP1;ratioP1;P1;durP2;ratioP2;P2;SDS_P1;SDS_P2;PMS_P1;PMS_P2;Temp;Humidity;BMP_temperature;BMP_pressure;BME280_temperature;BME280_humidity;BME280_pressure;Samples;Min_cycle;Max_cycle;Signal;HPM_P1;HPM_P2
2021/04/01 00:00:46;;;;;;;10.20;6.80;;;11.60;99.90;;;;;;5035779;28;20561;-78
2021/04/01 00:03:12;;;;;;;9.87;6.90;;;11.50;99.90;;;;;;5034680;28;20232;-78
2021/04/01 00:05:38;;;;;;;9.50;7.50;;;11.50;99.90;;;;;;5035102;28;20186;-78
2021/04/01 00:08:04;;;;;;;8.73;7.13;;;11.50;99.90;;;;;;5049362;28;20213;-78
2021/04/01 00:10:37;;;;;;;9.57;6.80;;;11.60;99.90;;;;;;5033573;28;20594;-78
2021/04/01 00:13:04;;;;;;;10.13;7.23;;;11.60;99.90;;;;;;5031755;28;20178;-78
2021/04/01 00:15:30;;;;;;;13.77;6.70;;;11.60;99.90;;;;;;5034662;28;20201;-78
2021/04/01 00:17:55;;;;;;;9.80;6.73;;;11.70;99.90;;;;;;5032802;28;20210;-78
2021/04/01 00:20:22;;;;;;;7.40;6.67;;;11.60;99.90;;;;;;5032404;28;20660;-78
2021/04/01 00:22:47;;;;;;;14.77;6.93;;;11.60;99.90;;;;;;5032673;28;20166;-78
2021/04/01 00:25:16;;;;;;;11.43;6.97;;;11.60;99.90;;;;;;5033696;28;20178;-78
2021/04/01 00:27:41;;;;;;;11.33;7.20;;;11.50;99.90;;;;;;5033841;28;20652;-78
2021/04/01 00:30:08;;;;;;;9.30;7.00;;;11.50;99.90;;;;;;5033111;28;20185;-78
2021/04/01 00:32:35;;;;;;;8.33;6.73;;;11.50;99.90;;;;;;5035120;28;20174;-78
2021/04/01 00:35:01;;;;;;;9.43;7.33;;;11.50;99.90;;;;;;5035341;28;20544;-78
2021/04/01 00:37:27;;;;;;;9.53;7.30;;;11.50;99.90;;;;;;5033521;28;20174;-77
2021/04/01 00:39:53;;;;;;;8.50;6.43;;;11.50;99.90;;;;;;5035321;28;20591;-78
2021/04/01 00:42:18;;;;;;;7.47;6.17;;;11.40;99.90;;;;;;5035587;28;20668;-78
2021/04/01 00:44:44;;;;;;;10.33;6.60;;;11.40;99.90;;;;;;5034978;28;20539;-78
2021/04/01 00:47:10;;;;;;;8.93;6.33;;;11.30;99.90;;;;;;5034010;28;20198;-78
2021/04/01 00:49:37;;;;;;;7.73;6.50;;;11.20;99.90;;;;;;5036156;28;20209;-77
2021/04/01 00:52:05;;;;;;;8.67;6.50;;;11.20;99.90;;;;;;5035114;28;20260;-78
2021/04/01 00:54:31;;;;;;;9.97;6.90;;;11.20;99.90;;;;;;5034823;28;20190;-78
2021/04/01 00:56:57;;;;;;;10.10;7.03;;;11.20;99.90;;;;;;5035042;28;20548;-78
2021/04/01 00:59:23;;;;;;;9.13;7.10;;;11.20;99.90;;;;;;5034767;28;20210;-78
2021/04/01 01:01:51;;;;;;;13.43;7.23;;;11.20;99.90;;;;;;5034892;28;20262;-78
2021/04/01 01:04:18;;;;;;;10.97;7.47;;;11.20;99.90;;;;;;5035301;28;20257;-78
2021/04/01 01:06:45;;;;;;;9.47;7.60;;;11.20;99.90;;;;;;5033675;28;20175;-78
2021/04/01 01:09:11;;;;;;;7.73;6.43;;;11.20;99.90;;;;;;5034731;28;20199;-78
2021/04/01 01:11:38;;;;;;;12.07;7.47;;;11.20;99.90;;;;;;5034890;28;20202;-78
2021/04/01 01:14:06;;;;;;;10.23;7.80;;;11.20;99.90;;;;;;5034717;28;20186;-78
2021/04/01 01:16:33;;;;;;;8.73;6.90;;;11.20;99.90;;;;;;5036452;28;20181;-78
2021/04/01 01:19:00;;;;;;;10.97;7.47;;;11.20;99.90;;;;;;5038498;28;20576;-78
2021/04/01 01:21:26;;;;;;;8.77;7.10;;;11.30;99.90;;;;;;5038098;28;20252;-78
2021/04/01 01:23:53;;;;;;;9.37;6.73;;;11.20;99.90;;;;;;5038545;28;20201;-78
2021/04/01 01:26:19;;;;;;;8.90;6.30;;;11.20;99.90;;;;;;5034165;28;20203;-78
2021/04/01 01:28:46;;;;;;;11.10;7.43;;;11.10;99.90;;;;;;5023048;28;20190;-78
2021/04/01 01:31:12;;;;;;;10.40;6.70;;;11.20;99.90;;;;;;5035585;28;20644;-78
2021/04/01 01:33:41;;;;;;;12.93;7.50;;;11.10;99.90;;;;;;5035001;28;20182;-78
2021/04/01 01:36:06;;;;;;;7.57;6.87;;;11.10;99.90;;;;;;5036201;28;20174;-78
2021/04/01 01:38:32;;;;;;;9.53;6.40;;;11.10;99.90;;;;;;5034922;28;20581;-78
2021/04/01 01:40:58;;;;;;;8.37;6.60;;;11.00;99.90;;;;;;5037992;28;20213;-78
2021/04/01 01:43:24;;;;;;;9.20;6.90;;;10.80;99.90;;;;;;5036798;28;20178;-78
2021/04/01 01:45:51;;;;;;;7.83;6.70;;;10.60;99.90;;;;;;5037504;28;20175;-78
2021/04/01 01:48:17;;;;;;;11.77;6.70;;;10.60;99.90;;;;;;5035162;28;20752;-78
2021/04/01 01:50:43;;;;;;;12.50;7.43;;;10.70;99.90;;;;;;5037543;28;20209;-78
2021/04/01 01:53:10;;;;;;;9.50;7.10;;;10.70;99.90;;;;;;5037724;28;20179;-78
2021/04/01 01:55:37;;;;;;;8.27;6.63;;;10.70;99.90;;;;;;5037257;28;20175;-78
2021/04/01 01:58:03;;;;;;;10.23;7.03;;;10.70;99.90;;;;;;5037690;28;20210;-78
2021/04/01 02:00:42;;;;;;;11.57;6.37;;;10.70;99.90;;;;;;5037560;28;20194;-78
2021/04/01 02:03:09;;;;;;;7.70;6.90;;;10.60;99.90;;;;;;5036387;28;20178;-78
2021/04/01 02:05:37;;;;;;;11.20;7.13;;;10.60;99.90;;;;;;5037777;28;20255;-79
2021/04/01 02:08:04;;;;;;;11.53;6.97;;;10.60;99.90;;;;;;5037428;28;20194;-78
2021/04/01 02:10:35;;;;;;;11.83;7.23;;;10.50;99.90;;;;;;5037418;28;20289;-78
2021/04/01 02:13:03;;;;;;;10.97;6.93;;;10.50;99.90;;;;;;5037176;28;20247;-78
2021/04/01 02:15:36;;;;;;;8.00;7.07;;;10.40;99.90;;;;;;5036911;28;20186;-78
2021/04/01 02:18:08;;;;;;;11.43;6.80;;;10.40;99.90;;;;;;5020096;28;20673;-78
2021/04/01 02:20:45;;;;;;;8.67;6.83;;;10.40;99.90;;;;;;5037115;28;20212;-78
2021/04/01 02:23:13;;;;;;;7.23;6.53;;;10.50;99.90;;;;;;5035833;28;20185;-78
2021/04/01 02:25:39;;;;;;;12.57;8.00;;;10.40;99.90;;;;;;5036780;28;20229;-78
2021/04/01 02:28:06;;;;;;;9.83;6.80;;;10.40;99.90;;;;;;5031088;28;20203;-78
2021/04/01 02:30:41;;;;;;;8.93;7.20;;;10.30;99.90;;;;;;5036592;28;20190;-78
2021/04/01 02:33:08;;;;;;;8.13;6.80;;;10.20;99.90;;;;;;5035195;28;20236;-77
2021/04/01 02:35:35;;;;;;;8.77;7.00;;;10.10;99.90;;;;;;5036804;28;20166;-78
2021/04/01 02:38:01;;;;;;;10.27;7.23;;;10.00;99.90;;;;;;5034984;28;20194;-78
2021/04/01 02:40:27;;;;;;;8.13;6.63;;;10.00;99.90;;;;;;5035040;28;20193;-78
2021/04/01 02:42:54;;;;;;;9.10;6.83;;;9.90;99.90;;;;;;5036329;28;20167;-79
2021/04/01 02:45:20;;;;;;;8.60;7.73;;;9.90;99.90;;;;;;5036097;28;20540;-78
2021/04/01 02:47:45;;;;;;;7.87;7.00;;;9.80;99.90;;;;;;5035888;28;20169;-78
2021/04/01 02:50:12;;;;;;;7.87;7.07;;;9.90;99.90;;;;;;5036649;28;20174;-78
2021/04/01 02:52:39;;;;;;;8.40;6.80;;;9.90;99.90;;;;;;5036375;28;20182;-78
2021/04/01 02:55:07;;;;;;;7.20;6.47;;;9.90;99.90;;;;;;5036225;28;20190;-78
2021/04/01 02:57:32;;;;;;;8.00;6.57;;;10.00;99.90;;;;;;5034687;28;20179;-78
2021/04/01 03:00:03;;;;;;;8.17;7.10;;;10.00;99.90;;;;;;5036081;28;20194;-77
2021/04/01 03:02:29;;;;;;;11.23;7.53;;;9.90;99.90;;;;;;5034766;28;20174;-78
2021/04/01 03:04:55;;;;;;;9.60;7.50;;;9.90;99.90;;;;;;5034529;28;20233;-78
2021/04/01 03:07:21;;;;;;;11.27;6.97;;;9.90;99.90;;;;;;5034608;28;20177;-78
2021/04/01 03:09:47;;;;;;;11.27;6.80;;;9.70;99.90;;;;;;5035725;28;20564;-78
2021/04/01 03:12:13;;;;;;;10.67;6.97;;;9.60;99.90;;;;;;5034396;28;20177;-78
2021/04/01 03:14:39;;;;;;;13.20;7.20;;;9.50;99.90;;;;;;5034029;28;20173;-78
2021/04/01 03:17:05;;;;;;;9.97;7.27;;;9.50;99.90;;;;;;5035244;28;20177;-79
2021/04/01 03:19:31;;;;;;;10.77;7.10;;;9.50;99.90;;;;;;5030833;28;20253;-78
2021/04/01 03:21:57;;;;;;;14.00;7.00;;;9.50;99.90;;;;;;5035331;28;20229;-78
2021/04/01 03:24:22;;;;;;;8.77;6.70;;;9.40;99.90;;;;;;5034191;28;20201;-77
2021/04/01 03:26:48;;;;;;;10.37;6.80;;;9.40;99.90;;;;;;5033878;28;20182;-77
2021/04/01 03:29:15;;;;;;;8.63;6.57;;;9.50;99.90;;;;;;5033852;28;20205;-78
2021/04/01 03:31:40;;;;;;;13.00;7.67;;;9.60;99.90;;;;;;5033776;28;20648;-77
2021/04/01 03:34:06;;;;;;;8.40;7.30;;;9.60;99.90;;;;;;5033979;28;20185;-78
2021/04/01 03:36:32;;;;;;;12.73;7.80;;;9.60;99.90;;;;;;5033592;28;20197;-77
2021/04/01 03:38:58;;;;;;;12.50;7.17;;;9.50;99.90;;;;;;5033293;28;20301;-78
2021/04/01 03:41:24;;;;;;;11.23;7.07;;;9.50;99.90;;;;;;5049138;28;20261;-78
2021/04/01 03:43:50;;;;;;;11.07;7.77;;;9.50;99.90;;;;;;5033722;28;20621;-78
2021/04/01 03:46:16;;;;;;;10.87;7.50;;;9.40;99.90;;;;;;5034158;28;20223;-78
2021/04/01 03:48:41;;;;;;;12.13;7.07;;;9.50;99.90;;;;;;5033037;28;20733;-78
2021/04/01 03:51:07;;;;;;;8.67;7.30;;;9.50;99.90;;;;;;5033067;28;20176;-78
2021/04/01 03:53:33;;;;;;;17.83;7.07;;;9.50;99.90;;;;;;5033148;28;20538;-78
2021/04/01 03:56:00;;;;;;;10.20;6.90;;;9.40;99.90;;;;;;5047815;28;20663;-78
2021/04/01 03:59:28;;;;;;;23.50;7.30;;;9.40;99.90;;;;;;5028511;28;20575;-78
2021/04/01 04:01:55;;;;;;;13.53;7.70;;;9.30;99.90;;;;;;5022142;28;20209;-77
2021/04/01 04:09:58;;;;;;;11.97;7.87;;;9.10;99.90;;;;;;5030233;28;20873;-78
2021/04/01 04:15:12;;;;;;;14.07;8.03;;;8.90;99.90;;;;;;5032544;28;20173;-78
2021/04/01 04:17:38;;;;;;;10.03;7.83;;;8.90;99.90;;;;;;5032128;28;20179;-80
2021/04/01 04:20:05;;;;;;;10.13;7.93;;;8.80;99.90;;;;;;5030505;28;20280;-77
2021/04/01 04:22:31;;;;;;;10.87;7.97;;;8.70;99.90;;;;;;5031528;28;20179;-78
2021/04/01 04:24:57;;;;;;;8.57;7.27;;;8.70;99.90;;;;;;5018921;28;20256;-78
2021/04/01 04:30:01;;;;;;;14.87;8.00;;;8.70;99.90;;;;;;5032927;28;20176;-78
2021/04/01 04:32:28;;;;;;;15.33;7.90;;;8.70;99.90;;;;;;5032926;28;20631;-78
2021/04/01 04:34:54;;;;;;;11.80;7.87;;;8.70;99.90;;;;;;5032521;28;20222;-78
2021/04/01 04:37:20;;;;;;;12.47;8.20;;;8.70;99.90;;;;;;5031400;28;20175;-78
2021/04/01 04:39:46;;;;;;;10.60;7.60;;;8.80;99.90;;;;;;5032273;28;20195;-78
2021/04/01 04:42:11;;;;;;;10.83;7.93;;;8.80;99.90;;;;;;5031033;28;20674;-77
2021/04/01 04:44:37;;;;;;;12.47;7.80;;;8.80;99.90;;;;;;5032647;28;20177;-79
2021/04/01 04:47:04;;;;;;;10.17;7.97;;;8.90;99.90;;;;;;5032261;28;20264;-78
2021/04/01 04:49:30;;;;;;;12.30;7.67;;;8.90;99.90;;;;;;5011546;28;608276;-78
2021/04/01 04:51:56;;;;;;;14.90;8.10;;;9.00;99.90;;;;;;5035481;28;20656;-77
2021/04/01 04:54:22;;;;;;;12.03;7.00;;;8.90;99.90;;;;;;5037428;28;20184;-78
2021/04/01 04:56:50;;;;;;;9.03;6.77;;;8.90;99.90;;;;;;5037082;28;20194;-77
2021/04/01 04:59:45;;;;;;;12.23;7.17;;;8.90;99.90;;;;;;5036903;28;20201;-77
2021/04/01 05:04:59;;;;;;;8.23;7.33;;;8.80;99.90;;;;;;5036997;28;20311;-78
2021/04/01 05:07:25;;;;;;;14.87;8.50;;;8.80;99.90;;;;;;5037198;28;20180;-78
2021/04/01 05:09:50;;;;;;;12.43;8.60;;;8.80;99.90;;;;;;5036854;28;20205;-77
2021/04/01 05:12:16;;;;;;;12.33;7.37;;;8.80;99.90;;;;;;5036942;28;20206;-77
2021/04/01 05:14:42;;;;;;;11.70;8.87;;;8.80;99.90;;;;;;5035500;28;20181;-77
2021/04/01 05:17:08;;;;;;;14.80;8.63;;;8.90;99.90;;;;;;5027360;28;20185;-77
2021/04/01 05:19:36;;;;;;;14.53;8.80;;;8.90;99.90;;;;;;5029698;28;20592;-77
2021/04/01 05:24:37;;;;;;;16.10;9.67;;;8.90;99.90;;;;;;5035256;28;20595;-78
2021/04/01 05:27:09;;;;;;;17.67;9.63;;;8.90;99.90;;;;;;5035109;28;20181;-77
2021/04/01 05:29:39;;;;;;;15.17;9.13;;;8.90;99.90;;;;;;5034960;28;20725;-77
2021/04/01 05:32:06;;;;;;;14.40;9.23;;;8.90;99.90;;;;;;5035080;28;20184;-77
2021/04/01 05:34:32;;;;;;;11.37;9.07;;;8.90;99.90;;;;;;5034050;28;20185;-77
2021/04/01 05:36:59;;;;;;;10.47;7.67;;;8.90;99.90;;;;;;5050284;28;20670;-77
2021/04/01 05:39:32;;;;;;;14.77;8.93;;;8.80;99.90;;;;;;5034841;28;20671;-77
2021/04/01 05:41:59;;;;;;;20.67;9.07;;;8.70;99.90;;;;;;5034791;28;20593;-77
2021/04/01 05:46:58;;;;;;;18.20;8.87;;;8.70;99.90;;;;;;5034516;28;20583;-77
2021/04/01 06:03:33;;;;;;;12.53;8.60;;;8.90;99.90;;;;;;5035904;28;20545;-78
2021/04/01 06:06:11;;;;;;;13.17;8.07;;;8.90;99.90;;;;;;5034819;28;20189;-78
2021/04/01 06:08:41;;;;;;;14.13;8.60;;;8.90;99.90;;;;;;5034779;28;20199;-78
2021/04/01 06:11:07;;;;;;;12.87;8.83;;;9.00;99.90;;;;;;5034915;28;20190;-78
2021/04/01 06:13:41;;;;;;;15.23;8.93;;;9.10;99.90;;;;;;5016551;28;20203;-77
2021/04/01 06:16:11;;;;;;;12.87;8.97;;;9.10;99.90;;;;;;5035549;28;20191;-77
2021/04/01 06:18:54;;;;;;;12.73;8.83;;;9.20;99.90;;;;;;5029335;28;20568;-78
2021/04/01 06:21:24;;;;;;;18.43;9.20;;;9.30;99.90;;;;;;5035728;28;20609;-78
2021/04/01 06:24:05;;;;;;;11.73;9.70;;;9.40;99.90;;;;;;5036065;28;20177;-78
2021/04/01 06:26:33;;;;;;;13.67;9.73;;;9.40;99.90;;;;;;5035816;28;20264;-78
2021/04/01 06:29:02;;;;;;;17.53;9.83;;;9.50;99.90;;;;;;5035477;28;20559;-78
2021/04/01 06:31:43;;;;;;;15.53;9.60;;;9.60;99.90;;;;;;5035497;28;20363;-78
2021/04/01 06:34:09;;;;;;;14.17;8.80;;;9.60;99.90;;;;;;5035358;28;20180;-77
2021/04/01 06:36:37;;;;;;;18.67;9.37;;;9.70;99.90;;;;;;5033879;28;20182;-77
2021/04/01 06:39:03;;;;;;;27.67;11.33;;;9.70;99.90;;;;;;5035093;28;20190;-77
2021/04/01 06:41:31;;;;;;;21.50;11.07;;;9.70;99.90;;;;;;5033932;28;20178;-77
2021/04/01 06:44:11;;;;;;;18.40;11.53;;;9.70;99.90;;;;;;5033851;28;20524;-77
2021/04/01 06:46:46;;;;;;;20.07;11.10;;;9.80;99.90;;;;;;5033874;28;20205;-77
2021/04/01 06:52:03;;;;;;;15.23;11.50;;;9.90;99.90;;;;;;5060067;22;20188;-73
2021/04/01 07:03:05;;;;;;;19.13;11.00;;;10.10;99.90;;;;;;5015320;28;20336;-72
2021/04/01 07:05:45;;;;;;;23.07;10.93;;;10.20;99.90;;;;;;5015011;28;20229;-73
2021/04/01 07:08:12;;;;;;;23.43;11.67;;;10.30;99.90;;;;;;4993802;28;20189;-73
2021/04/01 07:10:56;;;;;;;21.87;11.20;;;10.40;99.90;;;;;;4990004;28;20635;-72
2021/04/01 07:13:30;;;;;;;18.37;11.10;;;10.50;99.90;;;;;;4994925;28;20565;-73
2021/04/01 07:16:08;;;;;;;21.13;12.73;;;10.70;99.90;;;;;;4995204;28;20190;-73
2021/04/01 07:48:56;;;;;;;26.90;14.53;;;12.00;99.90;;;;;;4991173;28;20213;-75
2021/04/01 07:54:13;;;;;;;27.73;13.77;;;12.40;99.90;;;;;;4994442;28;20274;-72
2021/04/01 07:56:59;;;;;;;22.33;13.03;;;12.40;99.90;;;;;;4992792;28;20238;-71
2021/04/01 07:59:30;;;;;;;29.67;12.50;;;12.50;99.90;;;;;;4991846;28;20205;-69
2021/04/01 08:04:58;;;;;;;18.97;12.37;;;12.60;99.90;;;;;;5041817;28;20257;-72
2021/04/01 08:07:31;;;;;;;18.10;10.40;;;12.70;99.90;;;;;;4998518;28;20186;-72
2021/04/01 08:10:03;;;;;;;16.30;10.43;;;12.80;99.90;;;;;;4994906;28;20191;-74
2021/04/01 08:12:35;;;;;;;11.53;9.87;;;12.90;99.90;;;;;;4985386;28;20332;-71
2021/04/01 08:15:09;;;;;;;11.97;9.30;;;12.90;99.90;;;;;;5005639;28;20665;-71
2021/04/01 08:20:09;;;;;;;9.90;7.97;;;13.00;99.90;;;;;;4988110;28;20218;-71
2021/04/01 08:22:42;;;;;;;13.80;7.90;;;13.10;99.90;;;;;;4987066;28;20196;-73
2021/04/01 08:25:11;;;;;;;10.43;7.00;;;13.20;99.90;;;;;;4992874;28;20560;-73
2021/04/01 08:27:53;;;;;;;13.37;7.07;;;13.30;99.90;;;;;;4994103;28;20180;-72
2021/04/01 08:35:41;;;;;;;5.60;4.30;;;13.80;99.90;;;;;;4993487;28;20192;-73
2021/04/01 08:40:33;;;;;;;5.30;3.63;;;14.00;99.90;;;;;;4994231;28;20703;-73
2021/04/01 08:43:37;;;;;;;9.07;4.40;;;14.10;99.90;;;;;;4992270;28;20192;-74
2021/04/01 08:46:21;;;;;;;11.40;5.50;;;14.10;99.90;;;;;;4984270;28;20199;-73
2021/04/01 08:49:05;;;;;;;7.03;3.43;;;14.30;99.90;;;;;;4980616;28;20163;-73
2021/04/01 08:52:05;;;;;;;8.30;3.60;;;14.40;99.90;;;;;;5012891;28;20267;-73
2021/04/01 08:54:50;;;;;;;6.27;3.37;;;14.50;99.90;;;;;;4986117;28;20186;-71
2021/04/01 08:57:28;;;;;;;4.20;3.23;;;14.50;99.90;;;;;;4990497;28;20176;-72
2021/04/01 09:00:16;;;;;;;5.83;3.37;;;14.60;99.90;;;;;;4992498;28;20203;-72
2021/04/01 09:02:49;;;;;;;10.47;4.00;;;14.70;99.90;;;;;;4992393;28;20269;-74
2021/04/01 09:05:15;;;;;;;7.77;4.00;;;14.90;99.90;;;;;;4993533;28;20174;-72
2021/04/01 09:07:45;;;;;;;7.20;4.27;;;14.90;99.90;;;;;;4993637;28;20638;-74
2021/04/01 09:10:33;;;;;;;7.27;4.67;;;14.90;99.90;;;;;;4993672;28;20509;-73
2021/04/01 09:18:28;;;;;;;7.17;4.43;;;15.30;99.90;;;;;;5013795;28;20185;-73
2021/04/01 09:20:57;;;;;;;6.57;4.40;;;15.40;99.90;;;;;;5013314;28;20191;-73
2021/04/01 09:23:40;;;;;;;9.03;4.80;;;15.40;99.90;;;;;;5013432;28;20253;-72
2021/04/01 09:26:08;;;;;;;7.03;4.77;;;15.50;99.90;;;;;;5011961;28;20186;-73
2021/04/01 09:28:41;;;;;;;9.90;4.20;;;15.80;99.90;;;;;;5013127;28;20171;-74
2021/04/01 09:31:09;;;;;;;5.77;4.47;;;15.90;99.90;;;;;;5013336;28;20188;-73
2021/04/01 09:33:37;;;;;;;7.30;3.90;;;15.90;99.90;;;;;;5002259;28;20202;-73
2021/04/01 09:36:22;;;;;;;6.33;3.93;;;16.00;99.90;;;;;;5013039;28;20179;-73
2021/04/01 09:38:53;;;;;;;8.37;4.10;;;16.10;99.90;;;;;;5016755;28;20188;-74
2021/04/01 09:41:27;;;;;;;8.87;3.80;;;16.30;99.90;;;;;;5003815;28;20201;-73
2021/04/01 09:43:53;;;;;;;11.80;4.50;;;16.30;99.90;;;;;;5016413;28;20209;-74
2021/04/01 09:46:21;;;;;;;11.00;4.47;;;16.40;99.90;;;;;;5015310;28;20182;-73
2021/04/01 09:49:05;;;;;;;8.37;4.40;;;16.50;99.90;;;;;;5016542;28;20633;-73
2021/04/01 09:51:34;;;;;;;8.57;4.20;;;16.60;99.90;;;;;;4984573;28;20168;-73
2021/04/01 09:54:00;;;;;;;9.37;4.43;;;16.70;99.90;;;;;;4997343;28;20211;-73
2021/04/01 09:56:33;;;;;;;6.13;4.07;;;16.80;99.90;;;;;;4996792;28;20227;-73
2021/04/01 09:58:59;;;;;;;8.97;4.80;;;16.80;99.90;;;;;;4996877;28;20531;-73
2021/04/01 10:01:30;;;;;;;10.60;4.53;;;17.00;99.90;;;;;;4996596;28;20620;-73
2021/04/01 10:04:25;;;;;;;7.20;4.17;;;17.00;99.90;;;;;;4995493;28;20292;-73
2021/04/01 10:06:51;;;;;;;6.60;4.13;;;17.00;99.90;;;;;;4996820;28;20167;-75
2021/04/01 10:09:21;;;;;;;8.43;4.43;;;17.00;99.90;;;;;;4996841;28;20534;-73
2021/04/01 10:11:52;;;;;;;5.50;4.00;;;17.20;99.90;;;;;;4995239;28;20206;-73
2021/04/01 10:14:19;;;;;;;8.27;4.53;;;17.50;99.90;;;;;;4995281;28;20207;-73
2021/04/01 10:16:55;;;;;;;6.67;3.90;;;17.50;99.90;;;;;;4996603;28;20187;-73
2021/04/01 10:19:34;;;;;;;6.40;3.93;;;17.60;99.90;;;;;;4996553;28;20227;-73
2021/04/01 10:22:00;;;;;;;8.73;4.33;;;17.80;99.90;;;;;;4996378;28;20630;-75
2021/04/01 10:24:31;;;;;;;12.07;4.90;;;17.90;99.90;;;;;;4994558;28;20239;-72
2021/04/01 10:27:21;;;;;;;7.23;3.97;;;17.90;99.90;;;;;;4994086;28;20180;-74
2021/04/01 10:32:15;;;;;;;6.60;3.83;;;18.20;99.90;;;;;;4993112;28;20206;-72
2021/04/01 10:34:50;;;;;;;7.87;4.10;;;18.50;99.90;;;;;;4999754;28;20189;-72
2021/04/01 10:37:17;;;;;;;12.13;5.50;;;18.60;99.90;;;;;;4995756;28;20545;-71
2021/04/01 10:39:44;;;;;;;6.40;4.07;;;18.70;99.90;;;;;;4995821;28;20199;-72
2021/04/01 10:42:12;;;;;;;9.13;4.53;;;18.80;99.90;;;;;;4996016;28;20206;-72
2021/04/01 10:44:39;;;;;;;9.13;4.20;;;19.10;99.90;;;;;;5003823;28;20175;-73
2021/04/01 10:47:06;;;;;;;11.83;4.43;;;19.10;99.90;;;;;;5015603;28;20541;-71
2021/04/01 10:49:37;;;;;;;9.07;4.20;;;19.20;99.90;;;;;;5006114;28;20615;-72
2021/04/01 10:52:13;;;;;;;6.93;3.90;;;19.30;99.90;;;;;;4993280;28;20180;-72
2021/04/01 10:54:46;;;;;;;7.97;3.83;;;19.60;99.90;;;;;;4993858;28;20183;-72
2021/04/01 10:57:25;;;;;;;7.97;4.43;;;19.80;99.90;;;;;;4995674;28;20184;-72
2021/04/01 10:59:51;;;;;;;10.37;4.13;;;19.80;99.90;;;;;;4995333;28;20203;-73
2021/04/01 11:02:24;;;;;;;4.80;4.30;;;20.00;99.90;;;;;;4994331;28;20541;-73
2021/04/01 11:05:01;;;;;;;10.50;4.10;;;20.20;99.90;;;;;;4995540;28;20218;-72
2021/04/01 11:07:35;;;;;;;6.77;4.57;;;20.00;99.90;;;;;;4995453;28;20175;-71
2021/04/01 11:10:02;;;;;;;10.27;4.23;;;20.30;99.90;;;;;;4995568;28;20184;-71
2021/04/01 11:12:30;;;;;;;6.87;4.10;;;20.40;99.90;;;;;;4994552;28;20226;-70
2021/04/01 11:15:08;;;;;;;8.50;4.00;;;20.50;99.90;;;;;;4994465;28;20180;-72
2021/04/01 11:17:39;;;;;;;11.30;4.23;;;20.70;99.90;;;;;;4995037;28;20179;-72
2021/04/01 11:20:06;;;;;;;5.47;3.90;;;20.80;99.90;;;;;;4979523;28;20369;-72
2021/04/01 11:22:32;;;;;;;7.47;3.70;;;20.90;99.90;;;;;;4995279;28;20195;-72
2021/04/01 11:25:10;;;;;;;6.13;3.67;;;20.80;99.90;;;;;;4991666;28;20222;-72
2021/04/01 11:27:49;;;;;;;10.13;3.73;;;20.80;99.90;;;;;;4994941;28;20172;-72
2021/04/01 11:30:16;;;;;;;5.90;3.67;;;20.80;99.90;;;;;;4994856;28;20179;-71
2021/04/01 11:32:52;;;;;;;5.43;3.33;;;21.00;99.90;;;;;;4995014;28;20196;-73
2021/04/01 11:35:24;;;;;;;7.30;4.17;;;21.10;99.90;;;;;;4994943;28;20187;-72
2021/04/01 11:37:53;;;;;;;8.90;4.07;;;21.20;99.90;;;;;;4994879;28;20538;-73
2021/04/01 11:40:19;;;;;;;5.00;3.80;;;21.40;99.90;;;;;;4995161;28;20195;-74
2021/04/01 11:42:58;;;;;;;8.07;3.67;;;21.40;99.20;;;;;;4987304;28;20200;-73
2021/04/01 11:45:35;;;;;;;9.20;3.77;;;21.50;99.10;;;;;;4993482;28;20176;-73
2021/04/01 11:48:04;;;;;;;6.03;3.30;;;21.50;99.90;;;;;;4994812;28;20176;-73
2021/04/01 11:50:29;;;;;;;9.47;3.87;;;21.60;99.90;;;;;;4994732;28;20188;-72
2021/04/01 11:52:57;;;;;;;8.00;3.50;;;21.70;98.70;;;;;;4993393;28;20276;-73
2021/04/01 11:55:24;;;;;;;8.60;4.40;;;21.90;98.60;;;;;;4994877;28;20190;-72
2021/04/01 11:57:50;;;;;;;9.60;4.43;;;22.00;99.50;;;;;;4994608;28;20187;-73
2021/04/01 12:00:21;;;;;;;10.90;3.70;;;22.10;98.40;;;;;;4994260;28;20199;-72
2021/04/01 12:02:54;;;;;;;9.60;3.47;;;22.00;98.40;;;;;;4994383;28;20589;-72
2021/04/01 12:05:22;;;;;;;8.47;4.97;;;22.20;97.70;;;;;;4994870;28;20321;-72
2021/04/01 12:07:49;;;;;;;11.60;3.60;;;22.20;98.50;;;;;;4994471;28;20255;-73
2021/04/01 12:10:15;;;;;;;5.00;3.20;;;22.20;97.20;;;;;;4994146;28;20176;-73
2021/04/01 12:12:41;;;;;;;6.43;3.00;;;22.20;96.00;;;;;;4993104;28;20207;-73
2021/04/01 12:15:08;;;;;;;8.40;4.10;;;22.30;97.60;;;;;;4994363;28;20175;-72
2021/04/01 12:17:41;;;;;;;5.43;3.80;;;22.30;96.20;;;;;;4994082;28;20186;-72
2021/04/01 12:20:11;;;;;;;5.93;4.20;;;22.20;96.40;;;;;;4991282;28;20194;-73
2021/04/01 12:22:43;;;;;;;7.03;3.40;;;22.10;96.50;;;;;;4990682;28;20195;-75
2021/04/01 12:25:15;;;;;;;9.50;3.70;;;22.30;97.70;;;;;;4991150;28;20176;-73
2021/04/01 12:27:55;;;;;;;8.00;3.50;;;22.60;97.60;;;;;;4993941;28;20222;-72
2021/04/01 12:30:26;;;;;;;8.63;3.20;;;22.80;97.00;;;;;;4993426;28;20257;-72
2021/04/01 12:32:53;;;;;;;9.27;4.03;;;23.00;96.80;;;;;;4984674;28;20196;-72
2021/04/01 12:35:20;;;;;;;6.17;3.53;;;23.10;95.70;;;;;;4977011;28;20180;-72
2021/04/01 12:37:58;;;;;;;6.73;3.70;;;23.20;94.60;;;;;;4993988;28;20171;-72
2021/04/01 12:40:25;;;;;;;8.93;4.17;;;23.30;95.10;;;;;;4987704;28;20258;-72
2021/04/01 12:42:51;;;;;;;4.47;3.00;;;23.30;93.50;;;;;;5006391;28;20554;-72
2021/04/01 12:45:21;;;;;;;5.23;2.90;;;23.40;93.00;;;;;;5013442;28;20178;-73
2021/04/01 12:47:50;;;;;;;5.73;3.60;;;23.50;92.10;;;;;;5013469;28;20167;-72
2021/04/01 12:50:16;;;;;;;9.40;3.73;;;23.50;92.70;;;;;;5013461;28;20266;-72
2021/04/01 12:52:54;;;;;;;4.00;2.30;;;23.50;93.10;;;;;;5012900;28;20293;-73
2021/04/01 12:55:41;;;;;;;6.07;3.17;;;23.60;93.50;;;;;;5049572;22;20217;-75
2021/04/01 12:58:21;;;;;;;7.17;3.07;;;23.60;91.10;;;;;;5031398;28;20174;-75
2021/04/01 13:00:52;;;;;;;6.90;2.93;;;23.50;91.10;;;;;;5033022;28;20636;-75
2021/04/01 13:03:17;;;;;;;6.53;2.80;;;23.50;93.30;;;;;;5033201;28;20170;-75
2021/04/01 13:05:51;;;;;;;5.13;4.00;;;23.50;92.50;;;;;;5014530;28;20600;-77
2021/04/01 13:10:43;;;;;;;6.57;3.83;;;23.50;92.50;;;;;;5013159;28;20174;-77
2021/04/01 13:13:10;;;;;;;10.43;3.70;;;23.60;93.40;;;;;;5015699;28;20175;-77
2021/04/01 13:15:38;;;;;;;6.40;3.50;;;23.70;93.30;;;;;;5017092;28;20195;-77
2021/04/01 13:18:08;;;;;;;6.43;3.57;;;23.70;92.30;;;;;;5015960;28;20167;-77
2021/04/01 13:20:35;;;;;;;5.53;3.33;;;23.70;93.00;;;;;;5014417;28;20194;-77
2021/04/01 13:25:27;;;;;;;9.37;3.23;;;24.00;92.70;;;;;;5015190;28;20550;-76
2021/04/01 13:27:53;;;;;;;4.90;2.97;;;23.90;90.70;;;;;;5016583;28;20171;-76
2021/04/01 13:30:21;;;;;;;13.13;3.00;;;23.70;91.30;;;;;;5016116;28;20229;-77
2021/04/01 13:32:56;;;;;;;7.13;2.43;;;23.80;92.00;;;;;;5015029;28;20171;-77
2021/04/01 13:38:15;;;;;;;4.83;2.47;;;23.90;87.10;;;;;;5003511;28;20175;-77
2021/04/01 13:40:44;;;;;;;8.87;2.77;;;23.90;87.80;;;;;;4999385;28;20186;-77
2021/04/01 13:43:12;;;;;;;6.17;2.77;;;24.00;88.10;;;;;;5000274;28;20649;-77
2021/04/01 13:45:41;;;;;;;4.93;2.50;;;24.00;88.90;;;;;;4997291;28;20716;-77
2021/04/01 13:48:17;;;;;;;7.43;2.50;;;24.10;90.80;;;;;;4998630;28;20175;-77
2021/04/01 13:50:51;;;;;;;5.27;2.27;;;24.10;90.10;;;;;;4998342;28;20625;-77
2021/04/01 13:53:55;;;;;;;6.97;2.70;;;24.00;88.80;;;;;;5003441;28;20285;-77
2021/04/01 13:56:22;;;;;;;5.87;2.37;;;24.00;87.30;;;;;;5018944;28;21150;-75
2021/04/01 14:09:47;;;;;;;6.70;3.00;;;24.00;86.30;;;;;;5016185;28;20206;-77
2021/04/01 14:12:19;;;;;;;5.10;2.63;;;24.10;88.50;;;;;;5016158;28;20177;-77
2021/04/01 14:14:46;;;;;;;4.50;2.63;;;24.20;86.90;;;;;;5014233;28;20202;-77
2021/04/01 14:17:14;;;;;;;6.87;3.07;;;24.20;86.90;;;;;;5016475;28;20258;-77
2021/04/01 14:19:41;;;;;;;4.80;2.83;;;24.20;85.70;;;;;;5015899;28;20191;-76
2021/04/01 14:22:07;;;;;;;4.73;2.30;;;24.20;86.80;;;;;;5014902;28;20571;-77
2021/04/01 14:29:47;;;;;;;6.27;2.67;;;24.30;83.50;;;;;;5005090;28;20242;-75
2021/04/01 14:32:13;;;;;;;4.33;2.70;;;24.30;84.90;;;;;;5023742;28;20645;-74
2021/04/01 14:34:42;;;;;;;5.80;3.07;;;24.30;85.10;;;;;;5018479;28;20590;-74
2021/04/01 14:37:08;;;;;;;8.53;3.00;;;24.30;86.40;;;;;;5022527;28;20227;-75
2021/04/01 14:39:34;;;;;;;6.70;3.37;;;24.30;86.90;;;;;;5016804;28;20551;-75
2021/04/01 14:42:09;;;;;;;14.63;3.03;;;24.40;85.50;;;;;;5026747;28;20167;-75
2021/04/01 14:44:35;;;;;;;7.37;3.30;;;24.40;83.60;;;;;;5026119;28;20199;-76
2021/04/01 14:47:02;;;;;;;10.00;4.07;;;24.40;86.70;;;;;;5020359;28;20249;-75
2021/04/01 14:49:27;;;;;;;6.80;3.70;;;24.40;83.20;;;;;;5011845;28;20546;-75
2021/04/01 14:51:53;;;;;;;10.43;2.87;;;24.40;85.50;;;;;;5007979;28;20171;-74
2021/04/01 14:54:29;;;;;;;6.97;2.63;;;24.50;85.60;;;;;;5027225;28;20199;-74
2021/04/01 14:57:07;;;;;;;7.27;2.50;;;24.60;84.00;;;;;;5002903;28;20521;-77
2021/04/01 14:59:39;;;;;;;4.30;2.00;;;24.60;82.20;;;;;;5014550;28;20301;-77
2021/04/01 15:02:06;;;;;;;6.43;2.17;;;24.60;82.00;;;;;;5007441;28;20201;-76